createdAt,value
2018-09-24T00:01:14.415Z,9.54
2018-09-24T00:04:04.115Z,9.47
2018-09-24T00:06:51.949Z,9.44
2018-09-24T00:12:46.448Z,9.35
2018-09-24T00:15:34.881Z,9.99
2018-09-24T00:21:29.373Z,9.42
2018-09-24T00:24:17.834Z,10.05
2018-09-24T00:27:05.554Z,10.20
2018-09-24T00:29:53.018Z,10.29
2018-09-24T00:32:40.654Z,10.33
2018-09-24T00:35:35.694Z,9.77
2018-09-24T00:38:22.995Z,9.58
2018-09-24T00:41:10.294Z,9.50
2018-09-24T00:44:05.601Z,9.46
2018-09-24T00:46:53.123Z,9.38
2018-09-24T00:49:42.715Z,9.35
2018-09-24T00:52:45.396Z,9.34
2018-09-24T00:58:39.133Z,9.27
2018-09-24T01:01:27.197Z,9.26
2018-09-24T01:04:14.324Z,9.22
2018-09-24T01:07:02.008Z,9.19
2018-09-24T01:09:50.974Z,9.19
2018-09-24T01:12:40.278Z,9.17
2018-09-24T01:15:28.789Z,9.15
2018-09-24T01:18:16.611Z,9.12
2018-09-24T01:21:04.072Z,9.12
2018-09-24T01:23:52.085Z,9.12
2018-09-24T01:26:40.124Z,9.08
2018-09-24T01:29:28.441Z,9.09
2018-09-24T01:32:16.895Z,9.07
2018-09-24T01:35:04.476Z,9.11
2018-09-24T01:37:51.763Z,9.11
2018-09-24T01:40:39.443Z,9.08
2018-09-24T01:43:27.122Z,9.67
2018-09-24T01:46:15.555Z,9.27
2018-09-24T01:49:03.546Z,9.20
2018-09-24T01:51:52.051Z,9.15
2018-09-24T01:54:40.478Z,9.11
2018-09-24T01:57:28.072Z,9.07
2018-09-24T02:00:19.445Z,9.07
2018-09-24T02:03:06.494Z,9.08
2018-09-24T02:05:53.919Z,9.06
2018-09-24T02:11:47.784Z,9.62
2018-09-24T02:14:35.878Z,9.21
2018-09-24T02:17:24.041Z,9.09
2018-09-24T02:20:12.491Z,9.05
2018-09-24T02:26:06.686Z,9.16
2018-09-24T02:28:55.110Z,9.08
2018-09-24T02:31:50.544Z,9.04
2018-09-24T02:34:38.257Z,9.04
2018-09-24T02:37:25.538Z,9.05
2018-09-24T02:40:20.388Z,9.06
2018-09-24T02:43:07.810Z,9.06
2018-09-24T02:45:55.619Z,9.70
2018-09-24T02:48:42.759Z,9.32
2018-09-24T02:51:30.568Z,9.94
2018-09-24T02:54:25.594Z,9.47
2018-09-24T02:57:13.821Z,9.35
2018-09-24T03:03:10.330Z,9.25
2018-09-24T03:05:57.706Z,9.24
2018-09-24T03:08:46.261Z,9.85
2018-09-24T03:14:39.430Z,9.31
2018-09-24T03:17:27.677Z,9.23
2018-09-24T03:20:15.305Z,9.20
2018-09-24T03:26:09.081Z,9.97
2018-09-24T03:28:56.413Z,9.57
2018-09-24T03:31:47.532Z,9.50
2018-09-24T03:34:35.152Z,9.47
2018-09-24T03:37:30.561Z,10.12
2018-09-24T03:40:17.676Z,9.60
2018-09-24T03:43:12.487Z,9.50
2018-09-24T03:45:59.689Z,9.39
2018-09-24T03:48:47.377Z,9.35
2018-09-24T03:51:50.641Z,9.97
2018-09-24T03:54:47.269Z,9.42
2018-09-24T03:57:34.767Z,9.35
2018-09-24T04:00:23.196Z,9.27
2018-09-24T04:03:17.855Z,9.90
2018-09-24T04:09:47.956Z,9.33
2018-09-24T04:12:53.977Z,9.27
2018-09-24T04:15:59.874Z,9.23
2018-09-24T04:19:07.593Z,9.15
2018-09-24T04:22:29.191Z,9.09
2018-09-24T04:25:34.992Z,9.05
2018-09-24T04:28:41.044Z,9.00
2018-09-24T04:35:10.996Z,8.90
2018-09-24T04:38:19.705Z,8.88
2018-09-24T04:41:25.046Z,8.86
2018-09-24T04:44:46.240Z,8.82
2018-09-24T04:47:59.204Z,8.81
2018-09-24T04:51:05.042Z,8.78
2018-09-24T04:54:10.833Z,9.41
2018-09-24T04:57:24.113Z,8.93
2018-09-24T05:00:30.688Z,8.85
2018-09-24T05:03:51.423Z,8.81
2018-09-24T05:06:58.004Z,8.79
2018-09-24T05:10:04.004Z,9.46
2018-09-24T05:13:09.643Z,9.71
2018-09-24T05:16:24.375Z,9.19
2018-09-24T05:19:30.932Z,9.09
2018-09-24T05:22:44.416Z,9.04
2018-09-24T05:29:16.039Z,9.02
2018-09-24T05:32:22.924Z,9.76
2018-09-24T05:35:31.003Z,9.32
2018-09-24T05:38:40.508Z,9.24
2018-09-24T05:41:50.323Z,9.20
2018-09-24T05:44:55.596Z,9.17
2018-09-24T05:48:01.200Z,9.19
2018-09-24T05:51:07.715Z,9.23
2018-09-24T05:54:13.808Z,9.29
2018-09-24T05:57:19.134Z,9.34
2018-09-24T06:00:25.422Z,9.37
2018-09-24T06:06:59.602Z,9.67
2018-09-24T06:10:05.246Z,9.67
2018-09-24T06:13:11.761Z,9.70
2018-09-24T06:16:17.725Z,9.73
2018-09-24T06:19:24.183Z,9.84
2018-09-24T06:22:29.615Z,9.96
2018-09-24T06:25:35.193Z,10.09
2018-09-24T06:28:40.791Z,10.12
2018-09-24T06:31:46.433Z,10.12
2018-09-24T06:34:53.410Z,10.32
2018-09-24T06:37:59.179Z,11.44
2018-09-24T06:41:07.715Z,11.75
2018-09-24T06:47:38.404Z,11.94
2018-09-24T06:50:45.671Z,11.91
2018-09-24T06:53:51.417Z,10.98
2018-09-24T06:56:58.242Z,11.62
2018-09-24T07:00:04.441Z,10.72
2018-09-24T07:03:10.894Z,10.45
2018-09-24T07:06:17.101Z,10.40
2018-09-24T07:09:26.705Z,10.35
2018-09-24T07:12:32.421Z,11.49
2018-09-24T07:15:38.131Z,10.98
2018-09-24T07:18:44.616Z,11.06
2018-09-24T07:21:54.360Z,10.91
2018-09-24T07:24:59.786Z,10.73
2018-09-24T07:28:05.622Z,10.77
2018-09-24T07:31:15.022Z,11.04
2018-09-24T07:34:28.524Z,11.36
2018-09-24T07:37:35.298Z,11.60
2018-09-24T07:40:41.849Z,11.48
2018-09-24T07:43:47.760Z,11.35
2018-09-24T07:46:54.706Z,12.37
2018-09-24T07:50:00.295Z,11.74
2018-09-24T07:53:06.626Z,11.68
2018-09-24T08:03:03.069Z,11.95
2018-09-24T08:06:08.509Z,12.04
2018-09-24T08:09:14.092Z,12.19
2018-09-24T08:12:20.829Z,12.36
2018-09-24T08:18:50.657Z,12.85
2018-09-24T08:25:37.781Z,12.53
2018-09-24T08:28:46.499Z,12.44
2018-09-24T08:35:18.115Z,12.25
2018-09-24T08:38:24.735Z,13.35
2018-09-24T08:45:03.331Z,12.22
2018-09-24T08:48:10.648Z,12.22
2018-09-24T08:51:16.729Z,12.38
2018-09-24T08:54:23.547Z,12.44
2018-09-24T08:57:29.658Z,12.41
2018-09-24T09:00:37.641Z,12.22
2018-09-24T09:03:41.774Z,12.08
2018-09-24T09:06:47.558Z,12.32
2018-09-24T09:09:54.146Z,12.50
2018-09-24T09:13:18.778Z,13.63
2018-09-24T09:19:58.477Z,13.11
2018-09-24T09:23:03.931Z,13.10
2018-09-24T09:29:38.601Z,13.37
2018-09-24T09:32:44.587Z,13.26
2018-09-24T09:35:50.494Z,14.61
2018-09-24T09:38:57.749Z,13.85
2018-09-24T09:42:03.691Z,14.71
2018-09-24T09:48:35.188Z,13.34
2018-09-24T09:51:43.246Z,13.25
2018-09-24T10:05:04.045Z,13.31
2018-09-24T10:08:13.717Z,13.34
2018-09-24T10:11:25.130Z,14.95
2018-09-24T10:17:57.673Z,14.37
2018-09-24T10:31:19.343Z,13.88
2018-09-24T10:34:28.994Z,13.78
2018-09-24T10:37:35.926Z,15.09
2018-09-24T10:40:43.976Z,14.09
2018-09-24T10:43:49.844Z,13.99
2018-09-24T10:47:01.057Z,15.33
2018-09-24T10:53:31.388Z,14.50
2018-09-24T10:56:39.601Z,14.29
2018-09-24T11:09:58.767Z,15.15
2018-09-24T11:23:22.402Z,15.56
2018-09-24T11:26:33.938Z,15.53
2018-09-24T11:29:39.312Z,15.08
2018-09-24T11:49:51.864Z,14.15
2018-09-24T11:59:48.326Z,14.30
2018-09-24T12:03:01.626Z,14.18
2018-09-24T12:06:09.743Z,14.19
2018-09-24T12:09:15.412Z,14.20
2018-09-24T12:19:10.184Z,14.54
2018-09-24T12:22:16.239Z,14.54
2018-09-24T12:25:22.086Z,14.49
2018-09-24T12:28:29.110Z,14.29
2018-09-24T12:31:35.884Z,14.08
2018-09-24T12:34:42.031Z,14.10
2018-09-24T12:37:49.651Z,15.50
2018-09-24T12:40:58.871Z,15.02
2018-09-24T12:44:04.367Z,15.32
2018-09-24T12:47:14.794Z,15.37
2018-09-24T12:50:20.656Z,16.67
2018-09-24T12:53:26.564Z,15.63
2018-09-24T12:59:56.972Z,14.46
2018-09-24T13:10:03.357Z,12.89
2018-09-24T13:16:47.584Z,13.65
2018-09-24T13:19:53.944Z,13.09
2018-09-24T13:29:48.436Z,13.86
2018-09-24T13:39:55.954Z,13.81
2018-09-24T13:43:01.765Z,13.78
2018-09-24T13:46:09.858Z,13.94
2018-09-24T13:52:48.036Z,14.17
2018-09-24T13:55:54.085Z,13.78
2018-09-24T13:59:12.340Z,13.37
2018-09-24T14:02:23.398Z,12.99
2018-09-24T14:05:29.364Z,12.85
2018-09-24T14:22:25.525Z,12.51
2018-09-24T14:25:31.311Z,12.49
2018-09-24T14:28:39.181Z,12.60
2018-09-24T14:31:48.147Z,12.75
2018-09-24T14:34:53.781Z,12.87
2018-09-24T14:44:53.934Z,13.00
2018-09-24T14:54:48.280Z,12.72
2018-09-24T14:57:58.408Z,13.47
2018-09-24T15:01:05.572Z,12.57
2018-09-24T15:04:11.271Z,12.23
2018-09-24T15:10:46.105Z,12.06
2018-09-24T15:13:53.162Z,13.03
2018-09-24T15:17:14.592Z,12.27
2018-09-24T15:20:20.387Z,12.13
2018-09-24T15:23:29.987Z,12.09
2018-09-24T15:26:39.894Z,12.04
2018-09-24T15:36:35.883Z,12.03
2018-09-24T15:39:41.393Z,11.95
2018-09-24T15:53:02.640Z,11.85
2018-09-24T15:56:08.909Z,11.74
2018-09-24T15:59:19.446Z,12.54
2018-09-24T16:19:30.900Z,11.06
2018-09-24T16:22:36.648Z,11.84
2018-09-24T16:25:42.736Z,11.15
2018-09-24T16:45:52.147Z,10.64
2018-09-24T16:48:57.534Z,10.65
2018-09-24T16:52:03.600Z,10.66
2018-09-24T16:55:09.527Z,10.62
2018-09-24T16:58:16.165Z,10.58
2018-09-24T17:01:21.636Z,10.52
2018-09-24T17:04:27.220Z,10.47
2018-09-24T17:24:41.372Z,10.94
2018-09-24T17:31:12.096Z,10.53
2018-09-24T17:34:19.197Z,10.36
2018-09-24T17:37:24.965Z,10.29
2018-09-24T17:40:31.193Z,10.24
2018-09-24T17:47:03.184Z,11.13
2018-09-24T17:50:12.030Z,11.23
2018-09-24T18:00:07.387Z,10.27
2018-09-24T18:06:37.818Z,10.16
2018-09-24T18:19:57.457Z,10.16
2018-09-24T18:23:15.831Z,10.07
2018-09-24T18:26:40.964Z,9.96
2018-09-24T18:36:37.377Z,9.89
2018-09-24T18:46:33.631Z,9.75
2018-09-24T18:59:58.352Z,9.41
2018-09-24T19:03:09.701Z,10.07
2018-09-24T19:06:15.724Z,9.54
2018-09-24T19:19:37.168Z,9.13
2018-09-24T19:29:53.781Z,8.99
2018-09-24T19:33:05.310Z,9.03
2018-09-24T19:36:28.474Z,9.05
2018-09-24T19:39:34.890Z,9.06
2018-09-24T19:42:41.765Z,9.06
2018-09-24T19:46:01.948Z,9.04
2018-09-24T19:52:32.621Z,9.72
2018-09-24T19:55:37.722Z,9.27
2018-09-24T20:02:08.437Z,9.11
2018-09-24T20:12:12.915Z,8.98
2018-09-24T20:18:45.093Z,8.96
2018-09-24T20:21:54.097Z,8.96
2018-09-24T20:25:00.757Z,8.97
2018-09-24T20:31:30.772Z,8.94
2018-09-24T20:44:51.365Z,8.86
2018-09-24T21:01:48.193Z,9.49
2018-09-24T21:15:24.836Z,9.71
2018-09-24T21:21:56.007Z,8.95
2018-09-24T21:25:01.952Z,8.89
2018-09-24T21:31:34.540Z,8.80
2018-09-24T21:38:23.668Z,8.95
2018-09-24T21:45:02.155Z,8.81
2018-09-24T21:51:32.158Z,8.82
2018-09-24T21:54:55.516Z,8.81
2018-09-24T21:58:00.751Z,8.82
2018-09-24T22:04:33.035Z,8.82
2018-09-24T22:24:40.911Z,8.47
2018-09-24T22:27:47.497Z,9.09
2018-09-24T22:34:18.604Z,8.44
2018-09-24T22:37:23.961Z,8.37
2018-09-24T22:44:09.864Z,8.27
2018-09-24T22:50:39.890Z,8.19
2018-09-24T23:00:35.612Z,8.15
2018-09-24T23:07:05.416Z,8.33
2018-09-24T23:27:13.474Z,8.35
2018-09-24T23:33:45.572Z,8.30
2018-09-24T23:36:52.017Z,8.30
2018-09-24T23:57:02.184Z,8.18
